TimeEDT,TemperatureF,Dew PointF,Humidity,Sea Level PressureIn,VisibilityMPH,Wind Direction,Wind SpeedMPH,Gust SpeedMPH,PrecipitationIn,Events,Conditions,WindDirDegrees,DateUTC
12:54 AM,57.9,48.9,72,30.23,10.0,South,3.5,-,N/A,,Clear,170,2013-08-17 04:54:00
1:54 AM,57.0,48.9,74,30.24,10.0,South,5.8,-,N/A,,Clear,180,2013-08-17 05:54:00
2:54 AM,55.0,48.9,80,30.24,10.0,SSE,3.5,-,N/A,,Clear,150,2013-08-17 06:54:00
3:54 AM,55.9,48.9,77,30.24,10.0,SSE,3.5,-,N/A,,Clear,150,2013-08-17 07:54:00
4:54 AM,55.0,48.9,80,30.25,10.0,SE,3.5,-,N/A,,Clear,130,2013-08-17 08:54:00
5:54 AM,55.9,48.9,77,30.27,10.0,Calm,Calm,-,N/A,,Clear,0,2013-08-17 09:54:00
6:54 AM,55.9,50.0,80,30.27,10.0,Calm,Calm,-,N/A,,Clear,0,2013-08-17 10:54:00
7:54 AM,57.0,52.0,83,30.28,10.0,SSE,3.5,-,N/A,,Clear,150,2013-08-17 11:54:00
8:54 AM,60.1,53.1,78,30.30,10.0,Calm,Calm,-,N/A,,Clear,0,2013-08-17 12:54:00
9:54 AM,64.0,53.1,67,30.29,10.0,East,5.8,-,N/A,,Clear,90,2013-08-17 13:54:00
10:54 AM,66.0,50.0,56,30.30,10.0,ESE,10.4,18.4,N/A,,Clear,120,2013-08-17 14:54:00
11:54 AM,66.0,48.9,54,30.29,10.0,ESE,10.4,17.3,N/A,,Clear,120,2013-08-17 15:54:00
12:54 PM,68.0,51.1,55,30.28,10.0,SSE,13.8,20.7,N/A,,Partly Cloudy,160,2013-08-17 16:54:00
1:54 PM,69.1,48.9,49,30.27,10.0,Variable,6.9,19.6,N/A,,Clear,0,2013-08-17 17:54:00
2:54 PM,68.0,50.0,52,30.28,10.0,SE,10.4,-,N/A,,Clear,140,2013-08-17 18:54:00
3:54 PM,68.0,50.0,52,30.27,10.0,Variable,6.9,-,N/A,,Scattered Clouds,0,2013-08-17 19:54:00
4:54 PM,68.0,50.0,52,30.26,10.0,SE,6.9,-,N/A,,Clear,140,2013-08-17 20:54:00
5:54 PM,66.9,51.1,57,30.27,10.0,Calm,Calm,-,N/A,,Partly Cloudy,0,2013-08-17 21:54:00
6:54 PM,64.9,54.0,68,30.27,10.0,Calm,Calm,-,N/A,,Clear,0,2013-08-17 22:54:00
7:54 PM,63.0,53.1,70,30.27,10.0,Calm,Calm,-,N/A,,Clear,0,2013-08-17 23:54:00
8:54 PM,62.1,53.1,72,30.27,10.0,ESE,3.5,-,N/A,,Clear,110,2013-08-18 00:54:00
9:54 PM,61.0,52.0,72,30.27,10.0,East,3.5,-,N/A,,Clear,100,2013-08-18 01:54:00
10:54 PM,61.0,51.1,70,30.26,10.0,ESE,3.5,-,N/A,,Clear,120,2013-08-18 02:54:00
11:54 PM,60.1,52.0,75,30.26,10.0,SE,3.5,-,N/A,,Clear,130,2013-08-18 03:54:00